sensor_id;sensor_type;location;lat;lon;timestamp;pressure;altitude;pressure_sealevel;temperature;humidity
75221;BME280;63802;53.232;6.570;2022-10-15T00:00:29;100721.28;;;11.45;97.49
75221;BME280;63802;53.232;6.570;2022-10-15T00:02:55;100733.91;;;11.57;97.84
75221;BME280;63802;53.232;6.570;2022-10-15T00:05:21;100737.44;;;11.57;97.78
75221;BME280;63802;53.232;6.570;2022-10-15T00:07:46;100729.94;;;11.51;97.79
75221;BME280;63802;53.232;6.570;2022-10-15T00:10:12;100727.25;;;11.54;97.42
75221;BME280;63802;53.232;6.570;2022-10-15T00:12:39;100725.00;;;11.60;97.63
75221;BME280;63802;53.232;6.570;2022-10-15T00:15:04;100716.00;;;11.59;97.78
75221;BME280;63802;53.232;6.570;2022-10-15T00:17:32;100730.53;;;11.67;97.58
75221;BME280;63802;53.232;6.570;2022-10-15T00:19:57;100721.03;;;11.57;97.50
75221;BME280;63802;53.232;6.570;2022-10-15T00:22:22;100731.28;;;11.64;97.70
75221;BME280;63802;53.232;6.570;2022-10-15T00:24:48;100739.06;;;11.62;97.69
75221;BME280;63802;53.232;6.570;2022-10-15T00:27:14;100732.84;;;11.61;97.57
75221;BME280;63802;53.232;6.570;2022-10-15T00:29:40;100732.84;;;11.61;97.69
75221;BME280;63802;53.232;6.570;2022-10-15T00:32:05;100737.19;;;11.66;97.72
75221;BME280;63802;53.232;6.570;2022-10-15T00:34:31;100731.34;;;11.67;97.50
75221;BME280;63802;53.232;6.570;2022-10-15T00:36:56;100729.03;;;11.69;97.52
75221;BME280;63802;53.232;6.570;2022-10-15T00:39:22;100722.03;;;11.68;97.66
75221;BME280;63802;53.232;6.570;2022-10-15T00:41:47;100725.88;;;11.67;97.37
75221;BME280;63802;53.232;6.570;2022-10-15T00:47:09;100729.03;;;11.69;97.52
75221;BME280;63802;53.232;6.570;2022-10-15T00:49:53;100725.88;;;11.67;97.42
75221;BME280;63802;53.232;6.570;2022-10-15T00:52:43;100730.53;;;11.67;97.49
75221;BME280;63802;53.232;6.570;2022-10-15T00:55:14;100729.44;;;11.68;97.50
75221;BME280;63802;53.232;6.570;2022-10-15T00:57:42;100725.88;;;11.67;97.66
75221;BME280;63802;53.232;6.570;2022-10-15T01:00:11;100729.03;;;11.69;97.58
75221;BME280;63802;53.232;6.570;2022-10-15T01:02:39;100717.31;;;11.69;97.50
75221;BME280;63802;53.232;6.570;2022-10-15T01:05:06;100728.53;;;11.64;97.42
75221;BME280;63802;53.232;6.570;2022-10-15T01:07:32;100715.59;;;11.57;97.22
75221;BME280;63802;53.232;6.570;2022-10-15T01:09:57;100711.31;;;11.60;97.60
75221;BME280;63802;53.232;6.570;2022-10-15T01:18:06;100711.41;;;11.67;97.45
75221;BME280;63802;53.232;6.570;2022-10-15T01:23:13;100705.50;;;11.61;97.13
75221;BME280;63802;53.232;6.570;2022-10-15T01:28:30;100701.97;;;11.61;97.19
75221;BME280;63802;53.232;6.570;2022-10-15T01:31:09;100690.56;;;11.55;97.48
75221;BME280;63802;53.232;6.570;2022-10-15T01:33:45;100687.81;;;11.52;97.27
75221;BME280;63802;53.232;6.570;2022-10-15T01:36:16;100693.78;;;11.61;97.29
75221;BME280;63802;53.232;6.570;2022-10-15T01:39:08;100696.88;;;11.59;97.16
75221;BME280;63802;53.232;6.570;2022-10-15T01:41:42;100691.38;;;11.56;97.15
75221;BME280;63802;53.232;6.570;2022-10-15T01:44:19;100691.00;;;11.57;97.20
75221;BME280;63802;53.232;6.570;2022-10-15T01:46:55;100686.69;;;11.56;96.93
75221;BME280;63802;53.232;6.570;2022-10-15T01:49:26;100681.56;;;11.51;96.80
75221;BME280;63802;53.232;6.570;2022-10-15T01:51:56;100690.63;;;11.59;96.95
75221;BME280;63802;53.232;6.570;2022-10-15T01:54:25;100684.72;;;11.57;97.09
75221;BME280;63802;53.232;6.570;2022-10-15T01:56:52;100688.25;;;11.57;96.92
75221;BME280;63802;53.232;6.570;2022-10-15T01:59:26;100682.00;;;11.57;97.04
75221;BME280;63802;53.232;6.570;2022-10-15T02:01:53;100685.13;;;11.55;96.73
75221;BME280;63802;53.232;6.570;2022-10-15T02:04:21;100672.59;;;11.54;96.91
75221;BME280;63802;53.232;6.570;2022-10-15T02:06:52;100680.06;;;11.57;96.82
75221;BME280;63802;53.232;6.570;2022-10-15T02:12:08;100680.38;;;11.52;96.78
75221;BME280;63802;53.232;6.570;2022-10-15T02:14:52;100675.31;;;11.54;96.71
75221;BME280;63802;53.232;6.570;2022-10-15T02:20:55;100674.19;;;11.55;96.64
75221;BME280;63802;53.232;6.570;2022-10-15T02:25:57;100666.31;;;11.50;96.37
75221;BME280;63802;53.232;6.570;2022-10-15T02:28:24;100671.03;;;11.53;96.59
75221;BME280;63802;53.232;6.570;2022-10-15T02:30:51;100660.09;;;11.53;96.31
75221;BME280;63802;53.232;6.570;2022-10-15T02:33:18;100647.50;;;11.45;96.22
75221;BME280;63802;53.232;6.570;2022-10-15T02:35:46;100655.38;;;11.50;96.33
75221;BME280;63802;53.232;6.570;2022-10-15T02:38:16;100652.25;;;11.48;96.47
75221;BME280;63802;53.232;6.570;2022-10-15T02:40:44;100646.38;;;11.50;96.51
75221;BME280;63802;53.232;6.570;2022-10-15T02:43:14;100653.38;;;11.47;96.36
75221;BME280;63802;53.232;6.570;2022-10-15T02:45:40;100653.06;;;11.52;96.39
75221;BME280;63802;53.232;6.570;2022-10-15T02:48:06;100649.19;;;11.53;96.32
75221;BME280;63802;53.232;6.570;2022-10-15T02:50:32;100660.84;;;11.50;96.35
75221;BME280;63802;53.232;6.570;2022-10-15T02:52:57;100632.56;;;11.35;96.36
75221;BME280;63802;53.232;6.570;2022-10-15T02:55:23;100645.97;;;11.48;96.33
75221;BME280;63802;53.232;6.570;2022-10-15T02:57:48;100645.19;;;11.47;96.11
75221;BME280;63802;53.232;6.570;2022-10-15T03:00:14;100627.16;;;11.39;95.91
75221;BME280;63802;53.232;6.570;2022-10-15T03:02:39;100654.56;;;11.46;96.04
75221;BME280;63802;53.232;6.570;2022-10-15T03:05:05;100648.28;;;11.42;96.17
75221;BME280;63802;53.232;6.570;2022-10-15T03:07:30;100646.28;;;11.39;96.18
75221;BME280;63802;53.232;6.570;2022-10-15T03:09:56;100635.63;;;11.30;96.15
75221;BME280;63802;53.232;6.570;2022-10-15T03:12:22;100643.03;;;11.30;96.18
75221;BME280;63802;53.232;6.570;2022-10-15T03:14:49;100634.00;;;11.26;96.33
75221;BME280;63802;53.232;6.570;2022-10-15T03:17:15;100643.88;;;11.34;96.52
75221;BME280;63802;53.232;6.570;2022-10-15T03:19:40;100632.53;;;11.32;96.57
75221;BME280;63802;53.232;6.570;2022-10-15T03:22:07;100634.94;;;11.37;96.50
75221;BME280;63802;53.232;6.570;2022-10-15T03:24:32;100630.94;;;11.31;96.47
75221;BME280;63802;53.232;6.570;2022-10-15T03:26:58;100640.03;;;11.38;96.60
75221;BME280;63802;53.232;6.570;2022-10-15T03:29:24;100633.44;;;11.43;96.30
75221;BME280;63802;53.232;6.570;2022-10-15T03:31:51;100636.56;;;11.41;96.27
75221;BME280;63802;53.232;6.570;2022-10-15T03:34:17;100612.22;;;11.29;96.11
75221;BME280;63802;53.232;6.570;2022-10-15T03:36:43;100627.16;;;11.39;96.31
75221;BME280;63802;53.232;6.570;2022-10-15T03:39:10;100636.16;;;11.39;96.36
75221;BME280;63802;53.232;6.570;2022-10-15T03:41:36;100633.41;;;11.39;96.29
75221;BME280;63802;53.232;6.570;2022-10-15T03:44:06;100634.94;;;11.37;96.22
75221;BME280;63802;53.232;6.570;2022-10-15T03:46:32;100636.09;;;11.36;96.39
75221;BME280;63802;53.232;6.570;2022-10-15T03:48:57;100636.50;;;11.38;96.26
75221;BME280;63802;53.232;6.570;2022-10-15T03:51:23;100627.16;;;11.39;96.24
75221;BME280;63802;53.232;6.570;2022-10-15T03:53:49;100630.22;;;11.34;96.14
75221;BME280;63802;53.232;6.570;2022-10-15T03:56:14;100624.75;;;11.34;96.15
75221;BME280;63802;53.232;6.570;2022-10-15T03:58:40;100628.69;;;11.36;96.27
75221;BME280;63802;53.232;6.570;2022-10-15T04:01:10;100627.09;;;11.35;96.22
75221;BME280;63802;53.232;6.570;2022-10-15T04:03:36;100635.69;;;11.34;96.13
75221;BME280;63802;53.232;6.570;2022-10-15T04:06:01;100622.34;;;11.29;96.08
75221;BME280;63802;53.232;6.570;2022-10-15T04:08:27;100621.19;;;11.30;96.04
75221;BME280;63802;53.232;6.570;2022-10-15T04:10:52;100625.53;;;11.34;96.41
75221;BME280;63802;53.232;6.570;2022-10-15T04:13:21;100638.03;;;11.35;95.83
75221;BME280;63802;53.232;6.570;2022-10-15T04:15:47;100628.63;;;11.33;96.39
75221;BME280;63802;53.232;6.570;2022-10-15T04:18:12;100637.63;;;11.33;96.47
75221;BME280;63802;53.232;6.570;2022-10-15T04:20:38;100625.47;;;11.31;96.19
75221;BME280;63802;53.232;6.570;2022-10-15T04:23:03;100616.09;;;11.28;96.30
75221;BME280;63802;53.232;6.570;2022-10-15T04:25:29;100627.88;;;11.36;96.56
75221;BME280;63802;53.232;6.570;2022-10-15T04:27:54;100632.63;;;11.39;96.20
75221;BME280;63802;53.232;6.570;2022-10-15T04:30:20;100633.34;;;11.36;96.34
75221;BME280;63802;53.232;6.570;2022-10-15T04:32:45;100637.34;;;11.42;96.28
75221;BME280;63802;53.232;6.570;2022-10-15T04:35:11;100638.91;;;11.43;96.42
75221;BME280;63802;53.232;6.570;2022-10-15T04:37:36;100641.63;;;11.43;96.45
75221;BME280;63802;53.232;6.570;2022-10-15T04:40:03;100636.56;;;11.41;96.57
75221;BME280;63802;53.232;6.570;2022-10-15T04:42:29;100636.91;;;11.40;96.60
75221;BME280;63802;53.232;6.570;2022-10-15T04:44:55;100638.09;;;11.39;96.57
75221;BME280;63802;53.232;6.570;2022-10-15T04:47:21;100622.34;;;11.29;96.55
75221;BME280;63802;53.232;6.570;2022-10-15T04:49:46;100624.66;;;11.27;96.58
75221;BME280;63802;53.232;6.570;2022-10-15T04:52:12;100638.03;;;11.35;96.91
75221;BME280;63802;53.232;6.570;2022-10-15T04:54:37;100639.56;;;11.33;96.53
75221;BME280;63802;53.232;6.570;2022-10-15T04:57:03;100638.78;;;11.32;97.00
75221;BME280;63802;53.232;6.570;2022-10-15T04:59:29;100632.53;;;11.32;96.76
75221;BME280;63802;53.232;6.570;2022-10-15T05:01:55;100634.84;;;11.30;96.62
75221;BME280;63802;53.232;6.570;2022-10-15T05:04:20;100630.13;;;11.27;96.79
75221;BME280;63802;53.232;6.570;2022-10-15T05:06:46;100633.28;;;11.29;96.87
75221;BME280;63802;53.232;6.570;2022-10-15T05:09:12;100640.25;;;11.26;96.98
75221;BME280;63802;53.232;6.570;2022-10-15T05:11:38;100614.31;;;11.10;96.90
75221;BME280;63802;53.232;6.570;2022-10-15T05:14:04;100622.97;;;11.15;97.07
75221;BME280;63802;53.232;6.570;2022-10-15T05:16:31;100627.66;;;11.18;96.87
75221;BME280;63802;53.232;6.570;2022-10-15T05:19:02;100610.31;;;11.04;96.71
75221;BME280;63802;53.232;6.570;2022-10-15T05:21:28;100622.91;;;11.12;96.60
75221;BME280;63802;53.232;6.570;2022-10-15T05:23:56;100642.50;;;11.17;96.85
75221;BME280;63802;53.232;6.570;2022-10-15T05:26:23;100622.91;;;11.12;96.74
75221;BME280;63802;53.232;6.570;2022-10-15T05:28:50;100630.78;;;11.17;96.68
75221;BME280;63802;53.232;6.570;2022-10-15T05:31:20;100618.19;;;11.09;96.72
75221;BME280;63802;53.232;6.570;2022-10-15T05:33:47;100594.59;;;10.94;96.48
75221;BME280;63802;53.232;6.570;2022-10-15T05:36:28;100631.59;;;11.21;96.46
75221;BME280;63802;53.232;6.570;2022-10-15T05:39:00;100627.31;;;11.20;96.39
75221;BME280;63802;53.232;6.570;2022-10-15T05:41:28;100626.91;;;11.18;96.57
75221;BME280;63802;53.232;6.570;2022-10-15T05:43:56;100616.72;;;11.15;96.31
75221;BME280;63802;53.232;6.570;2022-10-15T05:46:22;100634.31;;;11.21;96.36
75221;BME280;63802;53.232;6.570;2022-10-15T05:48:53;100623.28;;;11.10;96.22
75221;BME280;63802;53.232;6.570;2022-10-15T05:51:19;100633.03;;;11.11;96.45
75221;BME280;63802;53.232;6.570;2022-10-15T05:53:46;100657.34;;;11.20;96.50
75221;BME280;63802;53.232;6.570;2022-10-15T05:56:12;100632.38;;;11.18;96.49
75221;BME280;63802;53.232;6.570;2022-10-15T05:58:44;100610.69;;;11.02;96.68
75221;BME280;63802;53.232;6.570;2022-10-15T06:01:11;100605.59;;;11.01;96.48
75221;BME280;63802;53.232;6.570;2022-10-15T06:03:38;100616.72;;;11.15;96.09
75221;BME280;63802;53.232;6.570;2022-10-15T06:06:13;100623.00;;;11.19;96.20
75221;BME280;63802;53.232;6.570;2022-10-15T06:08:39;100616.78;;;11.22;96.26
75221;BME280;63802;53.232;6.570;2022-10-15T06:11:04;100597.84;;;11.06;96.13
75221;BME280;63802;53.232;6.570;2022-10-15T06:13:29;100606.19;;;11.17;96.25
75221;BME280;63802;53.232;6.570;2022-10-15T06:15:55;100624.75;;;11.34;96.01
75221;BME280;63802;53.232;6.570;2022-10-15T06:18:21;100636.47;;;11.34;95.96
75221;BME280;63802;53.232;6.570;2022-10-15T06:20:51;100640.41;;;11.37;96.10
75221;BME280;63802;53.232;6.570;2022-10-15T06:23:17;100614.56;;;11.31;96.01
75221;BME280;63802;53.232;6.570;2022-10-15T06:25:43;100629.50;;;11.40;96.09
75221;BME280;63802;53.232;6.570;2022-10-15T06:28:09;100602.00;;;11.26;96.00
75221;BME280;63802;53.232;6.570;2022-10-15T06:30:35;100609.88;;;11.31;95.86
75221;BME280;63802;53.232;6.570;2022-10-15T06:33:01;100603.22;;;11.29;95.64
75221;BME280;63802;53.232;6.570;2022-10-15T06:35:27;100622.84;;;11.38;95.76
75221;BME280;63802;53.232;6.570;2022-10-15T06:37:59;100624.41;;;11.39;95.39
75221;BME280;63802;53.232;6.570;2022-10-15T06:40:25;100633.06;;;11.44;95.56
75221;BME280;63802;53.232;6.570;2022-10-15T06:42:50;100637.78;;;11.48;95.56
75221;BME280;63802;53.232;6.570;2022-10-15T06:45:16;100633.44;;;11.43;95.42
75221;BME280;63802;53.232;6.570;2022-10-15T06:47:41;100641.31;;;11.48;95.48
75221;BME280;63802;53.232;6.570;2022-10-15T06:50:07;100639.72;;;11.47;95.75
75221;BME280;63802;53.232;6.570;2022-10-15T06:52:34;100645.63;;;11.49;95.34
75221;BME280;63802;53.232;6.570;2022-10-15T06:55:00;100646.03;;;11.51;95.30
75221;BME280;63802;53.232;6.570;2022-10-15T06:57:28;100644.84;;;11.52;95.52
75221;BME280;63802;53.232;6.570;2022-10-15T06:59:54;100622.88;;;11.41;95.30
75221;BME280;63802;53.232;6.570;2022-10-15T07:02:22;100633.94;;;11.52;95.31
75221;BME280;63802;53.232;6.570;2022-10-15T07:04:48;100635.13;;;11.55;95.18
75221;BME280;63802;53.232;6.570;2022-10-15T07:07:14;100641.38;;;11.55;95.27
75221;BME280;63802;53.232;6.570;2022-10-15T07:09:39;100635.19;;;11.58;95.32
75221;BME280;63802;53.232;6.570;2022-10-15T07:12:05;100624.59;;;11.57;95.16
75221;BME280;63802;53.232;6.570;2022-10-15T07:14:31;100638.72;;;11.62;95.35
75221;BME280;63802;53.232;6.570;2022-10-15T07:16:57;100620.25;;;11.52;95.04
75221;BME280;63802;53.232;6.570;2022-10-15T07:19:23;100636.81;;;11.66;95.38
75221;BME280;63802;53.232;6.570;2022-10-15T07:21:48;100624.66;;;11.60;95.46
75221;BME280;63802;53.232;6.570;2022-10-15T07:24:14;100638.47;;;11.71;95.33
75221;BME280;63802;53.232;6.570;2022-10-15T07:26:39;100627.78;;;11.62;95.32
75221;BME280;63802;53.232;6.570;2022-10-15T07:29:05;100628.38;;;11.75;95.36
75221;BME280;63802;53.232;6.570;2022-10-15T07:31:31;100641.66;;;11.76;95.31
75221;BME280;63802;53.232;6.570;2022-10-15T07:33:56;100643.63;;;11.79;95.61
75221;BME280;63802;53.232;6.570;2022-10-15T07:36:22;100640.91;;;11.79;95.53
75221;BME280;63802;53.232;6.570;2022-10-15T07:38:47;100638.56;;;11.81;95.67
75221;BME280;63802;53.232;6.570;2022-10-15T07:41:12;100644.84;;;11.85;95.66
75221;BME280;63802;53.232;6.570;2022-10-15T07:43:38;100628.44;;;11.82;95.48
75221;BME280;63802;53.232;6.570;2022-10-15T07:46:04;100627.31;;;11.86;95.54
75221;BME280;63802;53.232;6.570;2022-10-15T07:48:30;100622.25;;;11.88;95.23
75221;BME280;63802;53.232;6.570;2022-10-15T07:50:59;100610.97;;;11.93;95.24
75221;BME280;63802;53.232;6.570;2022-10-15T07:53:26;100606.75;;;11.99;95.29
75221;BME280;63802;53.232;6.570;2022-10-15T07:55:52;100611.03;;;12.00;95.16
75221;BME280;63802;53.232;6.570;2022-10-15T07:58:17;100600.44;;;11.95;95.20
75221;BME280;63802;53.232;6.570;2022-10-15T08:00:43;100595.38;;;11.97;95.38
75221;BME280;63802;53.232;6.570;2022-10-15T08:03:08;100617.03;;;12.17;95.22
75221;BME280;63802;53.232;6.570;2022-10-15T08:05:34;100615.88;;;12.18;95.08
75221;BME280;63802;53.232;6.570;2022-10-15T08:07:59;100628.06;;;12.24;94.76
75221;BME280;63802;53.232;6.570;2022-10-15T08:10:25;100624.13;;;12.21;94.61
75221;BME280;63802;53.232;6.570;2022-10-15T08:12:51;100631.53;;;12.21;94.65
75221;BME280;63802;53.232;6.570;2022-10-15T08:15:18;100634.34;;;12.28;94.98
75221;BME280;63802;53.232;6.570;2022-10-15T08:17:43;100621.81;;;12.27;94.60
75221;BME280;63802;53.232;6.570;2022-10-15T08:20:09;100608.06;;;12.20;94.79
75221;BME280;63802;53.232;6.570;2022-10-15T08:22:34;100619.97;;;12.38;94.95
75221;BME280;63802;53.232;6.570;2022-10-15T08:25:00;100626.63;;;12.44;94.59
75221;BME280;63802;53.232;6.570;2022-10-15T08:27:25;100632.97;;;12.51;94.44
75221;BME280;63802;53.232;6.570;2022-10-15T08:29:51;100625.88;;;12.47;94.60
75221;BME280;63802;53.232;6.570;2022-10-15T08:32:16;100608.66;;;12.43;94.27
75221;BME280;63802;53.232;6.570;2022-10-15T08:34:42;100625.22;;;12.64;94.56
75221;BME280;63802;53.232;6.570;2022-10-15T08:37:07;100593.09;;;12.57;94.43
75221;BME280;63802;53.232;6.570;2022-10-15T08:39:34;100620.63;;;12.82;94.20
75221;BME280;63802;53.232;6.570;2022-10-15T08:42:03;100611.63;;;12.78;94.05
75221;BME280;63802;53.232;6.570;2022-10-15T08:44:37;100630.09;;;12.88;93.90
75221;BME280;63802;53.232;6.570;2022-10-15T08:47:08;100630.84;;;12.85;93.80
75221;BME280;63802;53.232;6.570;2022-10-15T08:49:44;100630.88;;;12.92;93.50
75221;BME280;63802;53.232;6.570;2022-10-15T08:55:11;100628.56;;;13.01;93.15
75221;BME280;63802;53.232;6.570;2022-10-15T08:57:43;100625.47;;;13.03;93.03
75221;BME280;63802;53.232;6.570;2022-10-15T09:02:55;100631.84;;;13.21;92.94
75221;BME280;63802;53.232;6.570;2022-10-15T09:11:03;100638.09;;;13.14;92.37
75221;BME280;63802;53.232;6.570;2022-10-15T09:13:37;100641.97;;;13.13;92.20
75221;BME280;63802;53.232;6.570;2022-10-15T09:16:11;100628.66;;;13.15;91.93
75221;BME280;63802;53.232;6.570;2022-10-15T09:18:41;100632.59;;;13.14;92.10
75221;BME280;63802;53.232;6.570;2022-10-15T09:21:07;100630.22;;;13.09;92.16
75221;BME280;63802;53.232;6.570;2022-10-15T09:23:35;100625.91;;;13.08;92.45
75221;BME280;63802;53.232;6.570;2022-10-15T09:26:21;100620.84;;;13.17;92.50
75221;BME280;63802;53.232;6.570;2022-10-15T09:29:00;100624.81;;;13.23;92.40
75221;BME280;63802;53.232;6.570;2022-10-15T09:31:37;100622.84;;;13.20;91.88
75221;BME280;63802;53.232;6.570;2022-10-15T09:34:13;100634.56;;;13.17;91.47
75221;BME280;63802;53.232;6.570;2022-10-15T09:36:53;100630.66;;;13.15;91.33
75221;BME280;63802;53.232;6.570;2022-10-15T09:42:31;100634.97;;;13.19;91.32
75221;BME280;63802;53.232;6.570;2022-10-15T09:45:01;100635.34;;;13.14;91.32
75221;BME280;63802;53.232;6.570;2022-10-15T09:47:30;100639.53;;;13.01;91.13
75221;BME280;63802;53.232;6.570;2022-10-15T09:49:56;100637.53;;;12.95;91.18
75221;BME280;63802;53.232;6.570;2022-10-15T09:57:52;100633.94;;;12.80;91.93
75221;BME280;63802;53.232;6.570;2022-10-15T10:00:19;100637.81;;;12.79;92.08
75221;BME280;63802;53.232;6.570;2022-10-15T10:03:03;100629.16;;;12.70;92.04
75221;BME280;63802;53.232;6.570;2022-10-15T10:05:34;100630.75;;;12.71;92.17
75221;BME280;63802;53.232;6.570;2022-10-15T10:08:09;100638.56;;;12.69;92.29
75221;BME280;63802;53.232;6.570;2022-10-15T10:10:36;100633.50;;;12.71;92.51
75221;BME280;63802;53.232;6.570;2022-10-15T10:13:06;100632.25;;;12.65;92.56
75221;BME280;63802;53.232;6.570;2022-10-15T10:15:34;100645.19;;;12.68;92.43
75221;BME280;63802;53.232;6.570;2022-10-15T10:18:02;100645.63;;;12.73;92.65
75221;BME280;63802;53.232;6.570;2022-10-15T10:20:32;100643.25;;;12.68;92.45
75221;BME280;63802;53.232;6.570;2022-10-15T10:23:08;100646.34;;;12.67;92.69
75221;BME280;63802;53.232;6.570;2022-10-15T10:25:44;100643.22;;;12.65;92.84
75221;BME280;63802;53.232;6.570;2022-10-15T10:31:00;100635.44;;;12.70;92.34
75221;BME280;63802;53.232;6.570;2022-10-15T10:33:34;100628.41;;;12.76;92.64
75221;BME280;63802;53.232;6.570;2022-10-15T10:36:00;100615.88;;;12.72;92.11
75221;BME280;63802;53.232;6.570;2022-10-15T10:38:32;100612.47;;;12.89;91.98
75221;BME280;63802;53.232;6.570;2022-10-15T10:41:02;100607.00;;;12.89;92.09
75221;BME280;63802;53.232;6.570;2022-10-15T10:43:30;100606.63;;;12.94;91.43
75221;BME280;63802;53.232;6.570;2022-10-15T10:46:03;100597.66;;;12.97;91.55
75221;BME280;63802;53.232;6.570;2022-10-15T10:48:43;100585.50;;;12.98;91.10
75221;BME280;63802;53.232;6.570;2022-10-15T10:51:19;100591.03;;;13.05;90.98
75221;BME280;63802;53.232;6.570;2022-10-15T10:53:57;100586.03;;;13.14;90.83
75221;BME280;63802;53.232;6.570;2022-10-15T10:56:32;100573.97;;;13.40;90.53
75221;BME280;63802;53.232;6.570;2022-10-15T10:59:18;100580.22;;;13.44;89.93
75221;BME280;63802;53.232;6.570;2022-10-15T11:01:46;100581.03;;;13.41;89.44
75221;BME280;63802;53.232;6.570;2022-10-15T11:04:34;100577.84;;;13.28;89.59
75221;BME280;63802;53.232;6.570;2022-10-15T11:07:33;100584.91;;;13.36;89.96
75221;BME280;63802;53.232;6.570;2022-10-15T11:10:26;100581.81;;;13.45;89.76
75221;BME280;63802;53.232;6.570;2022-10-15T11:20:30;100548.56;;;13.57;89.27
75221;BME280;63802;53.232;6.570;2022-10-15T11:28:58;100534.06;;;13.60;88.12
75221;BME280;63802;53.232;6.570;2022-10-15T11:31:34;100530.16;;;13.65;88.46
75221;BME280;63802;53.232;6.570;2022-10-15T11:34:24;100522.72;;;13.76;88.05
75221;BME280;63802;53.232;6.570;2022-10-15T11:37:21;100529.78;;;13.87;88.19
75221;BME280;63802;53.232;6.570;2022-10-15T11:40:11;100520.78;;;13.94;88.14
75221;BME280;63802;53.232;6.570;2022-10-15T11:42:58;100521.56;;;13.91;87.70
75221;BME280;63802;53.232;6.570;2022-10-15T11:48:05;100526.25;;;14.08;87.39
75221;BME280;63802;53.232;6.570;2022-10-15T11:50:43;100530.94;;;14.22;87.48
75221;BME280;63802;53.232;6.570;2022-10-15T11:53:39;100532.13;;;14.31;87.34
75221;BME280;63802;53.232;6.570;2022-10-15T11:56:15;100522.72;;;14.25;86.84
75221;BME280;63802;53.232;6.570;2022-10-15T11:58:46;100514.88;;;14.31;87.00
75221;BME280;63802;53.232;6.570;2022-10-15T12:04:04;100514.50;;;14.32;86.53
75221;BME280;63802;53.232;6.570;2022-10-15T12:06:35;100514.47;;;14.43;86.49
75221;BME280;63802;53.232;6.570;2022-10-15T12:09:05;100505.03;;;14.47;86.37
75221;BME280;63802;53.232;6.570;2022-10-15T12:14:26;100506.97;;;14.57;86.02
75221;BME280;63802;53.232;6.570;2022-10-15T12:17:03;100503.47;;;14.53;86.18
75221;BME280;63802;53.232;6.570;2022-10-15T12:19:54;100502.69;;;14.42;85.88
75221;BME280;63802;53.232;6.570;2022-10-15T12:22:32;100498.41;;;14.34;86.03
75221;BME280;63802;53.232;6.570;2022-10-15T12:24:58;100510.53;;;14.26;86.98
75221;BME280;63802;53.232;6.570;2022-10-15T12:27:27;100506.63;;;14.24;87.17
75221;BME280;63802;53.232;6.570;2022-10-15T12:32:47;100483.13;;;14.12;86.81
75221;BME280;63802;53.232;6.570;2022-10-15T12:37:40;100492.50;;;14.29;86.85
75221;BME280;63802;53.232;6.570;2022-10-15T12:40:29;100492.53;;;14.32;86.65
75221;BME280;63802;53.232;6.570;2022-10-15T12:43:01;100481.13;;;14.37;86.58
75221;BME280;63802;53.232;6.570;2022-10-15T12:45:46;100487.81;;;14.36;86.58
75221;BME280;63802;53.232;6.570;2022-10-15T12:50:41;100480.75;;;14.39;86.65
75221;BME280;63802;53.232;6.570;2022-10-15T12:58:44;100479.59;;;14.36;87.68
75221;BME280;63802;53.232;6.570;2022-10-15T13:08:50;100480.78;;;14.07;90.36
75221;BME280;63802;53.232;6.570;2022-10-15T13:11:28;100482.34;;;14.08;91.19
75221;BME280;63802;53.232;6.570;2022-10-15T13:14:00;100479.63;;;14.08;91.30
75221;BME280;63802;53.232;6.570;2022-10-15T13:16:27;100483.91;;;14.02;91.57
75221;BME280;63802;53.232;6.570;2022-10-15T13:18:53;100478.44;;;13.98;91.90
75221;BME280;63802;53.232;6.570;2022-10-15T13:21:20;100476.06;;;13.97;92.15
75221;BME280;63802;53.232;6.570;2022-10-15T13:23:47;100474.53;;;14.03;92.45
75221;BME280;63802;53.232;6.570;2022-10-15T13:26:24;100465.91;;;13.87;92.67
75221;BME280;63802;53.232;6.570;2022-10-15T13:28:52;100472.97;;;13.98;93.07
75221;BME280;63802;53.232;6.570;2022-10-15T13:31:24;100472.16;;;14.12;93.23
75221;BME280;63802;53.232;6.570;2022-10-15T13:33:53;100455.72;;;13.98;93.27
75221;BME280;63802;53.232;6.570;2022-10-15T13:36:25;100468.25;;;14.13;93.04
75221;BME280;63802;53.232;6.570;2022-10-15T13:38:57;100476.03;;;14.18;93.20
75221;BME280;63802;53.232;6.570;2022-10-15T13:41:25;100469.00;;;14.17;93.04
75221;BME280;63802;53.232;6.570;2022-10-15T13:43:53;100476.84;;;14.15;93.10
75221;BME280;63802;53.232;6.570;2022-10-15T13:46:24;100470.19;;;14.09;93.10
75221;BME280;63802;53.232;6.570;2022-10-15T13:48:56;100471.38;;;14.08;93.56
75221;BME280;63802;53.232;6.570;2022-10-15T13:51:22;100467.44;;;14.09;93.75
75221;BME280;63802;53.232;6.570;2022-10-15T13:53:49;100469.81;;;14.10;93.89
75221;BME280;63802;53.232;6.570;2022-10-15T13:56:33;100455.69;;;14.05;94.09
75221;BME280;63802;53.232;6.570;2022-10-15T13:59:00;100465.91;;;14.01;94.02
75221;BME280;63802;53.232;6.570;2022-10-15T14:01:28;100469.81;;;14.00;94.25
75221;BME280;63802;53.232;6.570;2022-10-15T14:03:56;100468.63;;;13.97;94.42
75221;BME280;63802;53.232;6.570;2022-10-15T14:06:31;100462.75;;;13.95;94.61
75221;BME280;63802;53.232;6.570;2022-10-15T14:09:18;100470.22;;;13.98;94.55
75221;BME280;63802;53.232;6.570;2022-10-15T14:11:44;100465.91;;;14.01;94.43
75221;BME280;63802;53.232;6.570;2022-10-15T14:14:38;100469.81;;;13.96;94.32
75221;BME280;63802;53.232;6.570;2022-10-15T14:17:25;100472.16;;;13.94;94.78
75221;BME280;63802;53.232;6.570;2022-10-15T14:19:58;100472.56;;;14.00;94.91
75221;BME280;63802;53.232;6.570;2022-10-15T14:22:26;100475.31;;;14.00;94.85
75221;BME280;63802;53.232;6.570;2022-10-15T14:24:53;100463.94;;;13.91;95.01
75221;BME280;63802;53.232;6.570;2022-10-15T14:27:21;100473.72;;;14.02;94.78
75221;BME280;63802;53.232;6.570;2022-10-15T14:29:58;100474.50;;;13.99;95.29